createdAt,value
2017-08-12T00:00:22.866Z,15.74
2017-08-12T00:00:51.041Z,15.77
2017-08-12T00:01:19.283Z,15.8
2017-08-12T00:01:47.619Z,15.75
2017-08-12T00:02:15.866Z,15.77
2017-08-12T00:02:44.012Z,15.71
2017-08-12T00:03:12.163Z,15.74
2017-08-12T00:03:40.354Z,15.74
2017-08-12T00:04:08.594Z,15.62
2017-08-12T00:04:36.626Z,15.7
2017-08-12T00:05:04.742Z,15.65
2017-08-12T00:05:32.871Z,15.71
2017-08-12T00:06:01.225Z,15.67
2017-08-12T00:06:29.456Z,15.7
2017-08-12T00:06:57.490Z,15.7
2017-08-12T00:07:25.615Z,15.63
2017-08-12T00:07:53.859Z,15.6
2017-08-12T00:08:21.999Z,15.6
2017-08-12T00:08:50.035Z,15.58
2017-08-12T00:09:18.267Z,15.6
2017-08-12T00:09:46.501Z,15.62
2017-08-12T00:10:14.719Z,15.6
2017-08-12T00:10:42.794Z,15.63
2017-08-12T00:11:10.912Z,15.58
2017-08-12T00:11:39.213Z,15.58
2017-08-12T00:12:07.293Z,15.65
2017-08-12T00:12:35.453Z,15.62
2017-08-12T00:13:03.659Z,15.63
2017-08-12T00:13:31.735Z,15.62
2017-08-12T00:13:59.851Z,15.6
2017-08-12T00:14:28.048Z,15.62
2017-08-12T00:14:56.078Z,15.7
2017-08-12T00:15:24.298Z,15.51
2017-08-12T00:15:52.526Z,15.62
2017-08-12T00:16:20.563Z,15.59
2017-08-12T00:16:48.856Z,15.59
2017-08-12T00:17:16.961Z,15.51
2017-08-12T00:17:45.207Z,15.53
2017-08-12T00:18:13.281Z,15.58
2017-08-12T00:18:41.450Z,15.6
2017-08-12T00:19:09.699Z,15.62
2017-08-12T00:19:37.617Z,15.62
2017-08-12T00:20:05.701Z,15.59
2017-08-12T00:20:33.991Z,15.6
2017-08-12T00:21:02.204Z,15.55
2017-08-12T00:21:30.388Z,15.62
2017-08-12T00:21:58.632Z,15.63
2017-08-12T00:22:26.767Z,15.63
2017-08-12T00:22:54.991Z,15.56
2017-08-12T00:23:23.150Z,15.62
2017-08-12T00:23:51.386Z,15.62
2017-08-12T00:24:19.611Z,15.65
2017-08-12T00:24:47.674Z,15.63
2017-08-12T00:25:15.857Z,15.55
2017-08-12T00:25:44.097Z,15.62
2017-08-12T00:26:12.302Z,15.63
2017-08-12T00:26:40.236Z,15.56
2017-08-12T00:27:08.530Z,15.62
2017-08-12T00:27:36.660Z,15.6
2017-08-12T00:28:04.804Z,15.62
2017-08-12T00:28:32.976Z,15.63
2017-08-12T00:29:01.053Z,15.62
2017-08-12T00:29:29.274Z,15.67
2017-08-12T00:29:57.765Z,15.63
2017-08-12T00:30:26.035Z,15.58
2017-08-12T00:30:54.132Z,15.59
2017-08-12T00:31:22.357Z,15.56
2017-08-12T00:31:50.452Z,15.51
2017-08-12T00:32:18.636Z,15.53
2017-08-12T00:32:46.958Z,15.56
2017-08-12T00:33:15.017Z,15.53
2017-08-12T00:33:43.212Z,15.51
2017-08-12T00:34:11.437Z,15.53
2017-08-12T00:34:39.526Z,15.49
2017-08-12T00:35:07.720Z,15.51
2017-08-12T00:35:35.860Z,15.56
2017-08-12T00:36:03.962Z,15.47
2017-08-12T00:36:31.982Z,15.59
2017-08-12T00:37:00.233Z,15.53
2017-08-12T00:37:28.271Z,15.59
2017-08-12T00:37:56.300Z,15.55
2017-08-12T00:38:24.385Z,15.58
2017-08-12T00:38:52.688Z,15.65
2017-08-12T00:39:20.908Z,15.68
2017-08-12T00:39:49.055Z,15.67
2017-08-12T00:40:17.252Z,15.7
2017-08-12T00:40:45.511Z,15.6
2017-08-12T00:41:13.593Z,15.67
2017-08-12T00:41:41.737Z,15.63
2017-08-12T00:42:09.889Z,15.56
2017-08-12T00:42:38.062Z,15.67
2017-08-12T00:43:06.176Z,15.63
2017-08-12T00:43:34.331Z,15.67
2017-08-12T00:44:02.470Z,15.65
2017-08-12T00:44:30.548Z,15.67
2017-08-12T00:44:58.708Z,15.63
2017-08-12T00:45:26.903Z,15.59
2017-08-12T00:45:55.149Z,15.65
2017-08-12T00:46:23.451Z,15.58
2017-08-12T00:46:51.515Z,15.58
2017-08-12T00:47:19.759Z,15.55
2017-08-12T00:47:47.785Z,15.58
2017-08-12T00:48:16.020Z,15.52
2017-08-12T00:48:44.295Z,15.58
2017-08-12T00:49:12.362Z,15.51
2017-08-12T00:49:40.596Z,15.55
2017-08-12T00:50:08.642Z,15.56
2017-08-12T00:50:36.838Z,15.58
2017-08-12T00:51:04.975Z,15.56
2017-08-12T00:51:33.104Z,15.53
2017-08-12T00:52:01.443Z,15.55
2017-08-12T00:52:29.716Z,15.53
2017-08-12T00:52:57.980Z,15.58
2017-08-12T00:53:26.225Z,15.58
2017-08-12T00:53:54.406Z,15.58
2017-08-12T00:54:22.486Z,15.55
2017-08-12T00:54:50.722Z,15.58
2017-08-12T00:55:18.979Z,15.56
2017-08-12T00:55:47.027Z,15.65
2017-08-12T00:56:15.272Z,15.65
2017-08-12T00:56:43.513Z,15.59
2017-08-12T00:57:11.850Z,15.65
2017-08-12T00:57:40.495Z,15.63
2017-08-12T00:58:08.602Z,15.63
2017-08-12T00:58:36.747Z,15.56
2017-08-12T00:59:04.798Z,15.68
2017-08-12T00:59:32.969Z,15.74
2017-08-12T01:00:00.907Z,15.65
2017-08-12T01:00:29.031Z,15.68
2017-08-12T01:00:57.173Z,15.65
2017-08-12T01:01:25.207Z,15.7
2017-08-12T01:01:53.442Z,15.73
2017-08-12T01:02:21.693Z,15.7
2017-08-12T01:02:49.753Z,15.73
2017-08-12T01:03:17.928Z,15.8
2017-08-12T01:03:45.975Z,15.78
2017-08-12T01:04:14.108Z,15.77
2017-08-12T01:04:42.395Z,15.75
2017-08-12T01:05:10.532Z,15.81
2017-08-12T01:05:38.647Z,15.88
2017-08-12T01:06:06.867Z,15.77
2017-08-12T01:06:35.094Z,15.86
2017-08-12T01:07:03.325Z,15.84
2017-08-12T01:07:31.501Z,15.73
2017-08-12T01:07:59.497Z,15.74
2017-08-12T01:08:27.638Z,15.84
2017-08-12T01:08:55.754Z,15.84
2017-08-12T01:09:23.999Z,15.88
2017-08-12T01:09:52.137Z,15.78
2017-08-12T01:10:20.254Z,15.75
2017-08-12T01:10:48.318Z,15.8
2017-08-12T01:11:16.420Z,15.74
2017-08-12T01:11:44.573Z,15.8
2017-08-12T01:12:12.732Z,15.84
2017-08-12T01:12:41.025Z,15.78
2017-08-12T01:13:09.255Z,15.78
2017-08-12T01:13:37.479Z,15.78
2017-08-12T01:14:05.696Z,15.75
2017-08-12T01:14:33.857Z,15.86
2017-08-12T01:15:02.118Z,15.83
2017-08-12T01:15:30.330Z,15.84
2017-08-12T01:15:58.412Z,15.77
2017-08-12T01:16:26.655Z,15.86
2017-08-12T01:16:54.771Z,15.86
2017-08-12T01:17:22.931Z,15.89
2017-08-12T01:17:51.087Z,15.83
2017-08-12T01:18:19.268Z,15.84
2017-08-12T01:18:47.370Z,15.84
2017-08-12T01:19:15.339Z,15.88
2017-08-12T01:19:43.435Z,15.84
2017-08-12T01:20:11.540Z,15.92
2017-08-12T01:20:39.686Z,15.86
2017-08-12T01:21:07.691Z,15.88
2017-08-12T01:21:35.793Z,15.88
2017-08-12T01:22:03.918Z,15.83
2017-08-12T01:22:32.170Z,15.86
2017-08-12T01:23:00.242Z,15.86
2017-08-12T01:23:28.542Z,15.88
2017-08-12T01:23:56.629Z,15.89
2017-08-12T01:24:24.672Z,15.88
2017-08-12T01:24:52.935Z,15.84
2017-08-12T01:25:21.177Z,15.92
2017-08-12T01:25:49.395Z,15.88
2017-08-12T01:26:17.640Z,15.86
2017-08-12T01:26:45.733Z,15.84
2017-08-12T01:27:13.693Z,15.88
2017-08-12T01:27:41.997Z,15.91
2017-08-12T01:28:10.212Z,15.86
2017-08-12T01:28:38.243Z,15.88
2017-08-12T01:29:06.290Z,15.91
2017-08-12T01:29:34.286Z,15.88
2017-08-12T01:30:02.431Z,15.89
2017-08-12T01:30:30.656Z,15.91
2017-08-12T01:30:58.900Z,15.88
2017-08-12T01:31:27.072Z,15.84
2017-08-12T01:31:55.193Z,15.86
2017-08-12T01:32:23.336Z,15.86
2017-08-12T01:32:51.564Z,15.86
2017-08-12T01:33:19.820Z,15.88
2017-08-12T01:33:47.992Z,15.81
2017-08-12T01:34:16.085Z,15.89
2017-08-12T01:34:44.322Z,15.91
2017-08-12T01:35:12.407Z,15.86
2017-08-12T01:35:40.422Z,15.91
2017-08-12T01:36:08.664Z,15.81
2017-08-12T01:36:36.866Z,15.89
2017-08-12T01:37:05.073Z,15.89
2017-08-12T01:37:33.191Z,15.91
2017-08-12T01:38:01.579Z,15.83
2017-08-12T01:38:29.792Z,15.92
2017-08-12T01:38:57.838Z,15.89
2017-08-12T01:39:26.062Z,15.88
2017-08-12T01:39:54.533Z,15.89
2017-08-12T01:40:22.755Z,15.88
2017-08-12T01:40:50.950Z,15.91
2017-08-12T01:41:19.106Z,15.88
2017-08-12T01:41:47.312Z,15.83
2017-08-12T01:42:15.491Z,15.88
2017-08-12T01:42:43.724Z,15.88
2017-08-12T01:43:11.861Z,15.89
2017-08-12T01:43:39.989Z,15.86
2017-08-12T01:44:08.047Z,15.86
2017-08-12T01:44:36.228Z,15.89
2017-08-12T01:45:04.536Z,15.89
2017-08-12T01:45:32.819Z,15.91
2017-08-12T01:46:01.025Z,15.84
2017-08-12T01:46:29.249Z,15.88
2017-08-12T01:46:57.246Z,15.86
2017-08-12T01:47:25.398Z,15.88
2017-08-12T01:47:53.646Z,15.92
2017-08-12T01:48:21.810Z,15.86
2017-08-12T01:48:50.054Z,15.91
2017-08-12T01:49:18.258Z,15.86
2017-08-12T01:49:46.322Z,15.92
2017-08-12T01:50:14.496Z,15.86
2017-08-12T01:50:42.621Z,15.86
2017-08-12T01:51:10.814Z,15.86
2017-08-12T01:51:38.874Z,15.89
2017-08-12T01:52:07.076Z,15.89
2017-08-12T01:52:35.216Z,15.81
2017-08-12T01:53:03.100Z,15.83
2017-08-12T01:53:31.221Z,15.86
2017-08-12T01:53:59.377Z,15.83
2017-08-12T01:54:27.573Z,15.86
2017-08-12T01:54:55.730Z,15.88
2017-08-12T01:55:23.908Z,15.86
2017-08-12T01:55:52.102Z,15.83
2017-08-12T01:56:20.382Z,15.89
2017-08-12T01:56:48.641Z,15.86
2017-08-12T01:57:16.770Z,15.92
2017-08-12T01:57:44.761Z,15.84
2017-08-12T01:58:13.124Z,15.89
2017-08-12T01:58:41.282Z,15.88
2017-08-12T01:59:09.491Z,15.86
2017-08-12T01:59:37.663Z,15.81
2017-08-12T02:00:05.736Z,15.86
2017-08-12T02:00:33.938Z,15.88
2017-08-12T02:01:02.141Z,15.83
2017-08-12T02:01:30.388Z,15.89
2017-08-12T02:01:58.504Z,15.91
2017-08-12T02:02:26.689Z,15.86
2017-08-12T02:02:54.808Z,15.88
2017-08-12T02:03:23.101Z,15.92
2017-08-12T02:03:51.123Z,15.83
2017-08-12T02:04:19.240Z,15.84
2017-08-12T02:04:47.326Z,15.91
2017-08-12T02:05:15.422Z,15.88
2017-08-12T02:05:43.708Z,15.91
2017-08-12T02:06:11.853Z,15.88
2017-08-12T02:06:39.838Z,15.88
2017-08-12T02:07:07.959Z,15.83
2017-08-12T02:07:36.044Z,15.88
2017-08-12T02:08:04.219Z,15.88
2017-08-12T02:08:32.536Z,15.91
2017-08-12T02:09:00.706Z,15.84
2017-08-12T02:09:28.725Z,15.92
2017-08-12T02:09:57.002Z,15.92
2017-08-12T02:10:25.043Z,15.89
2017-08-12T02:10:53.122Z,15.88
2017-08-12T02:11:21.282Z,15.84
2017-08-12T02:11:49.427Z,15.91
2017-08-12T02:12:17.534Z,15.91
2017-08-12T02:12:45.600Z,15.88
2017-08-12T02:13:14.044Z,15.83
2017-08-12T02:13:42.050Z,15.89
2017-08-12T02:14:10.338Z,15.86
2017-08-12T02:14:38.442Z,15.86
2017-08-12T02:15:06.633Z,15.92
2017-08-12T02:15:34.590Z,15.84
2017-08-12T02:16:02.720Z,15.89
2017-08-12T02:16:30.979Z,15.84
2017-08-12T02:16:59.226Z,15.81
2017-08-12T02:17:27.476Z,15.89
2017-08-12T02:17:55.464Z,15.88
2017-08-12T02:18:23.816Z,15.86
2017-08-12T02:18:52.068Z,15.88
2017-08-12T02:19:20.186Z,15.88
2017-08-12T02:19:48.250Z,15.89
2017-08-12T02:20:16.403Z,15.88
2017-08-12T02:20:44.647Z,15.86
2017-08-12T02:21:12.534Z,15.91
2017-08-12T02:21:40.789Z,15.88
2017-08-12T02:22:09.023Z,15.81
2017-08-12T02:22:37.132Z,15.86
2017-08-12T02:23:05.206Z,15.86
2017-08-12T02:23:33.394Z,15.84
2017-08-12T02:24:01.492Z,15.89
2017-08-12T02:24:29.642Z,15.89
2017-08-12T02:24:57.889Z,15.86
2017-08-12T02:25:26.164Z,15.83
2017-08-12T02:25:54.310Z,15.84
2017-08-12T02:26:22.346Z,15.89
2017-08-12T02:26:50.470Z,15.88
2017-08-12T02:27:18.540Z,15.89
2017-08-12T02:27:46.652Z,15.88
2017-08-12T02:28:14.870Z,15.91
2017-08-12T02:28:43.154Z,15.81
2017-08-12T02:29:11.265Z,15.83
2017-08-12T02:29:39.487Z,15.78
2017-08-12T02:30:07.673Z,15.77
2017-08-12T02:30:35.725Z,15.89
2017-08-12T02:31:04.048Z,15.81
2017-08-12T02:31:32.272Z,15.86
2017-08-12T02:32:00.540Z,15.78
2017-08-12T02:32:28.451Z,15.75
2017-08-12T02:32:56.511Z,15.75
2017-08-12T02:33:24.588Z,15.77
2017-08-12T02:33:52.937Z,15.73
2017-08-12T02:34:21.024Z,15.75
2017-08-12T02:34:49.182Z,15.81
2017-08-12T02:35:17.419Z,15.73
2017-08-12T02:35:45.537Z,15.77
2017-08-12T02:36:13.597Z,15.8
2017-08-12T02:36:41.819Z,15.74
2017-08-12T02:37:09.840Z,15.68
2017-08-12T02:37:37.985Z,15.7
2017-08-12T02:38:06.158Z,15.73
2017-08-12T02:38:34.206Z,15.77
2017-08-12T02:39:02.408Z,15.71
2017-08-12T02:39:30.673Z,15.77
2017-08-12T02:39:58.784Z,15.81
2017-08-12T02:40:27.009Z,15.71
2017-08-12T02:40:54.994Z,15.78
2017-08-12T02:41:23.137Z,15.75
2017-08-12T02:41:51.232Z,15.75
2017-08-12T02:42:19.524Z,15.81
2017-08-12T02:42:47.730Z,15.8
2017-08-12T02:43:15.709Z,15.77
2017-08-12T02:43:43.941Z,15.77
2017-08-12T02:44:12.097Z,15.86
2017-08-12T02:44:40.290Z,15.89
2017-08-12T02:45:08.370Z,15.8
2017-08-12T02:45:36.453Z,15.84
2017-08-12T02:46:04.541Z,15.89
2017-08-12T02:46:32.754Z,15.86
2017-08-12T02:47:00.962Z,15.75
2017-08-12T02:47:29.159Z,15.81
2017-08-12T02:47:57.368Z,15.84
2017-08-12T02:48:25.535Z,15.86
2017-08-12T02:48:53.869Z,15.78
2017-08-12T02:49:22.091Z,15.77
2017-08-12T02:49:50.260Z,15.83
2017-08-12T02:50:18.254Z,15.86
2017-08-12T02:50:46.294Z,15.86
2017-08-12T02:51:14.431Z,15.8
2017-08-12T02:51:42.646Z,15.78
2017-08-12T02:52:10.812Z,15.84
2017-08-12T02:52:38.965Z,15.75
2017-08-12T02:53:07.101Z,15.91
2017-08-12T02:53:35.108Z,15.83
2017-08-12T02:54:03.391Z,15.81
2017-08-12T02:54:31.538Z,15.89
2017-08-12T02:54:59.685Z,15.84
2017-08-12T02:55:27.751Z,15.73
2017-08-12T02:55:55.799Z,15.84
2017-08-12T02:56:23.986Z,15.84
2017-08-12T02:56:52.167Z,15.86
2017-08-12T02:57:20.356Z,15.89
2017-08-12T02:57:48.505Z,15.92
2017-08-12T02:58:16.617Z,15.81
2017-08-12T02:58:44.871Z,15.86
2017-08-12T02:59:13.080Z,15.88
2017-08-12T02:59:41.211Z,15.92
2017-08-12T03:00:09.401Z,15.84
2017-08-12T03:00:37.674Z,15.93
2017-08-12T03:01:05.769Z,15.93
2017-08-12T03:01:34.008Z,15.84
2017-08-12T03:02:02.222Z,15.91
2017-08-12T03:02:30.474Z,15.95
2017-08-12T03:02:58.698Z,15.98
2017-08-12T03:03:26.723Z,15.93
2017-08-12T03:03:55.118Z,15.95
2017-08-12T03:04:23.311Z,15.92
2017-08-12T03:04:51.516Z,15.95
2017-08-12T03:05:19.793Z,15.93
2017-08-12T03:05:47.997Z,15.96
2017-08-12T03:06:16.128Z,15.93
2017-08-12T03:06:44.328Z,15.95
2017-08-12T03:07:12.447Z,15.95
2017-08-12T03:07:40.580Z,15.91
2017-08-12T03:08:08.824Z,15.96
2017-08-12T03:08:36.982Z,15.95
2017-08-12T03:09:05.307Z,15.92
2017-08-12T03:09:33.530Z,15.93
2017-08-12T03:10:01.626Z,15.84
2017-08-12T03:10:29.825Z,15.93
2017-08-12T03:10:57.946Z,15.89
2017-08-12T03:11:26.045Z,15.84
2017-08-12T03:11:54.186Z,15.93
2017-08-12T03:12:22.301Z,15.86
2017-08-12T03:12:50.420Z,15.92
2017-08-12T03:13:18.350Z,15.93
2017-08-12T03:13:46.400Z,15.86
2017-08-12T03:14:14.707Z,15.93
2017-08-12T03:14:42.781Z,15.95
2017-08-12T03:15:10.996Z,15.84
2017-08-12T03:15:39.134Z,15.86
2017-08-12T03:16:07.360Z,15.93
2017-08-12T03:16:35.639Z,15.86
2017-08-12T03:17:03.689Z,15.88
2017-08-12T03:17:31.825Z,15.96
2017-08-12T03:18:00.075Z,15.92
2017-08-12T03:18:28.169Z,15.92
2017-08-12T03:18:56.313Z,15.88
2017-08-12T03:19:24.579Z,15.86
2017-08-12T03:19:52.709Z,15.92
2017-08-12T03:20:20.847Z,15.81
2017-08-12T03:20:49.023Z,15.88
2017-08-12T03:21:17.159Z,15.84
2017-08-12T03:21:45.319Z,15.88
2017-08-12T03:22:13.549Z,15.84
2017-08-12T03:22:41.726Z,15.83
2017-08-12T03:23:09.819Z,15.86
2017-08-12T03:23:37.877Z,15.91
2017-08-12T03:24:05.822Z,15.83
2017-08-12T03:24:34.128Z,15.86
2017-08-12T03:25:02.266Z,15.91
2017-08-12T03:25:30.505Z,15.92
2017-08-12T03:25:58.533Z,15.89
2017-08-12T03:26:26.767Z,15.86
2017-08-12T03:26:55.001Z,15.88
2017-08-12T03:27:23.167Z,15.89
2017-08-12T03:27:51.338Z,15.84
2017-08-12T03:28:19.629Z,15.84
2017-08-12T03:28:47.873Z,15.86
2017-08-12T03:29:16.154Z,15.88
2017-08-12T03:29:44.326Z,15.83
2017-08-12T03:30:12.547Z,15.91
2017-08-12T03:30:40.628Z,15.91
2017-08-12T03:31:08.786Z,15.83
2017-08-12T03:31:36.974Z,15.86
2017-08-12T03:32:05.213Z,15.86
2017-08-12T03:32:33.309Z,15.91
2017-08-12T03:33:01.651Z,15.86
2017-08-12T03:33:29.872Z,15.93
2017-08-12T03:33:57.975Z,15.98
2017-08-12T03:34:26.284Z,15.95
2017-08-12T03:34:54.502Z,15.93
2017-08-12T03:35:22.433Z,15.99
2017-08-12T03:35:50.546Z,15.96
2017-08-12T03:36:18.801Z,15.93
2017-08-12T03:36:46.965Z,15.92
2017-08-12T03:37:15.104Z,15.93
2017-08-12T03:37:43.071Z,15.95
2017-08-12T03:38:11.199Z,15.95
2017-08-12T03:38:39.471Z,15.93
2017-08-12T03:39:07.526Z,15.95
2017-08-12T03:39:35.751Z,15.95
2017-08-12T03:40:03.993Z,15.83
2017-08-12T03:40:32.118Z,15.92
2017-08-12T03:41:00.259Z,15.95
2017-08-12T03:41:28.316Z,15.91
2017-08-12T03:41:56.459Z,15.95
2017-08-12T03:42:24.559Z,15.93
2017-08-12T03:42:52.779Z,15.96
2017-08-12T03:43:20.998Z,15.95
2017-08-12T03:43:49.202Z,15.93
2017-08-12T03:44:17.345Z,15.99
2017-08-12T03:44:45.578Z,15.88
2017-08-12T03:45:13.669Z,15.95
2017-08-12T03:45:41.776Z,15.83
2017-08-12T03:46:10.058Z,15.88
2017-08-12T03:46:38.096Z,15.89
2017-08-12T03:47:06.157Z,15.95
2017-08-12T03:47:34.391Z,15.95
2017-08-12T03:48:02.341Z,15.95
2017-08-12T03:48:30.416Z,16
2017-08-12T03:48:58.692Z,15.92
2017-08-12T03:49:26.850Z,16.04
2017-08-12T03:49:55.162Z,15.93
2017-08-12T03:50:23.374Z,15.98
2017-08-12T03:50:51.693Z,16
2017-08-12T03:51:19.914Z,16.02
2017-08-12T03:51:47.962Z,15.98
2017-08-12T03:52:16.169Z,15.96
2017-08-12T03:52:44.316Z,16.07
2017-08-12T03:53:12.435Z,15.98
2017-08-12T03:53:40.717Z,15.98
2017-08-12T03:54:08.960Z,15.98
2017-08-12T03:54:37.090Z,15.92
2017-08-12T03:55:05.210Z,15.99
2017-08-12T03:55:33.348Z,15.98
2017-08-12T03:56:01.645Z,16.02
2017-08-12T03:56:29.601Z,16.02
2017-08-12T03:56:57.832Z,16
2017-08-12T03:57:25.982Z,16
2017-08-12T03:57:54.135Z,15.96
2017-08-12T03:58:22.367Z,16
2017-08-12T03:58:50.610Z,16.04
2017-08-12T03:59:18.735Z,16
2017-08-12T03:59:46.974Z,16
2017-08-12T04:00:15.236Z,15.93
2017-08-12T04:00:43.306Z,16
2017-08-12T04:01:11.467Z,15.95
2017-08-12T04:01:39.807Z,16.04
2017-08-12T04:02:07.968Z,15.93
2017-08-12T04:02:35.951Z,15.93
2017-08-12T04:03:04.151Z,15.92
2017-08-12T04:03:32.295Z,15.88
2017-08-12T04:04:00.538Z,15.86
2017-08-12T04:04:28.642Z,15.96
2017-08-12T04:04:56.969Z,15.86
2017-08-12T04:05:25.043Z,15.95
2017-08-12T04:05:53.205Z,16
2017-08-12T04:06:21.191Z,15.93
2017-08-12T04:06:49.256Z,15.96
2017-08-12T04:07:17.502Z,15.93
2017-08-12T04:07:45.734Z,15.96
2017-08-12T04:08:14.035Z,16.04
2017-08-12T04:08:42.189Z,16.04
2017-08-12T04:09:10.312Z,15.95
2017-08-12T04:09:38.380Z,15.93
2017-08-12T04:10:06.551Z,15.86
2017-08-12T04:10:34.684Z,15.95
2017-08-12T04:11:02.847Z,15.86
2017-08-12T04:11:30.868Z,15.92
2017-08-12T04:11:59.126Z,15.83
2017-08-12T04:12:27.266Z,15.86
2017-08-12T04:12:55.417Z,15.88
2017-08-12T04:13:23.640Z,15.83
2017-08-12T04:13:51.808Z,15.91
2017-08-12T04:14:19.998Z,15.91
2017-08-12T04:14:48.036Z,15.86
2017-08-12T04:15:16.283Z,15.86
2017-08-12T04:15:44.336Z,15.88
2017-08-12T04:16:12.362Z,15.92
2017-08-12T04:16:40.503Z,15.86
2017-08-12T04:17:08.562Z,15.89
2017-08-12T04:17:36.706Z,15.89
2017-08-12T04:18:04.849Z,15.89
2017-08-12T04:18:33.077Z,15.89
2017-08-12T04:19:01.109Z,15.86
2017-08-12T04:19:29.293Z,15.86
2017-08-12T04:19:57.470Z,15.86
2017-08-12T04:20:25.598Z,15.89
2017-08-12T04:20:53.683Z,15.84
2017-08-12T04:21:21.696Z,15.89
2017-08-12T04:21:49.873Z,15.93
2017-08-12T04:22:18.125Z,15.91
2017-08-12T04:22:46.356Z,15.86
2017-08-12T04:23:14.505Z,15.88
2017-08-12T04:23:42.536Z,15.91
2017-08-12T04:24:10.722Z,15.8
2017-08-12T04:24:38.789Z,15.81
2017-08-12T04:25:07.022Z,15.83
2017-08-12T04:25:35.188Z,15.83
2017-08-12T04:26:03.457Z,15.88
2017-08-12T04:26:31.728Z,15.83
2017-08-12T04:26:59.915Z,15.88
2017-08-12T04:27:27.852Z,15.89
2017-08-12T04:27:56.127Z,15.8
2017-08-12T04:28:24.367Z,15.8
2017-08-12T04:28:52.453Z,15.7
2017-08-12T04:29:20.716Z,15.78
2017-08-12T04:29:48.847Z,15.84
2017-08-12T04:30:16.946Z,15.75
2017-08-12T04:30:45.102Z,15.73
2017-08-12T04:31:13.370Z,15.71
2017-08-12T04:31:41.581Z,15.81
2017-08-12T04:32:09.607Z,15.7
2017-08-12T04:32:37.861Z,15.73
2017-08-12T04:33:05.988Z,15.62
2017-08-12T04:33:33.954Z,15.65
2017-08-12T04:34:02.130Z,15.7
2017-08-12T04:34:30.204Z,15.63
2017-08-12T04:34:58.382Z,15.7
2017-08-12T04:35:26.726Z,15.68
2017-08-12T04:35:54.990Z,15.78
2017-08-12T04:36:23.272Z,15.74
2017-08-12T04:36:51.424Z,15.74
2017-08-12T04:37:19.659Z,15.84
2017-08-12T04:37:47.835Z,15.8
2017-08-12T04:38:15.919Z,15.75
2017-08-12T04:38:44.125Z,15.78
2017-08-12T04:39:12.214Z,15.74
2017-08-12T04:39:40.479Z,15.73
2017-08-12T04:40:08.626Z,15.67
2017-08-12T04:40:36.902Z,15.7
2017-08-12T04:41:05.058Z,15.71
2017-08-12T04:41:33.156Z,15.7
2017-08-12T04:42:01.253Z,15.68
2017-08-12T04:42:29.302Z,15.78
2017-08-12T04:42:57.480Z,15.68
2017-08-12T04:43:25.671Z,15.67
2017-08-12T04:43:53.718Z,15.67
2017-08-12T04:44:21.862Z,15.65
2017-08-12T04:44:50.055Z,15.67
2017-08-12T04:45:18.230Z,15.71
2017-08-12T04:45:46.325Z,15.63
2017-08-12T04:46:14.482Z,15.65
2017-08-12T04:46:42.457Z,15.68
2017-08-12T04:47:10.375Z,15.67
2017-08-12T04:47:38.382Z,15.63
2017-08-12T04:48:06.296Z,15.67
2017-08-12T04:48:34.221Z,15.63
2017-08-12T04:49:02.342Z,15.67
2017-08-12T04:49:30.479Z,15.67
2017-08-12T04:49:58.596Z,15.59
2017-08-12T04:50:26.703Z,15.59
2017-08-12T04:50:54.826Z,15.67
2017-08-12T04:51:22.711Z,15.7
2017-08-12T04:51:50.867Z,15.71
2017-08-12T04:52:19.039Z,15.62
2017-08-12T04:52:47.138Z,15.67
2017-08-12T04:53:15.248Z,15.65
2017-08-12T04:53:43.451Z,15.62
2017-08-12T04:54:11.447Z,15.68
2017-08-12T04:54:39.368Z,15.63
2017-08-12T04:55:07.455Z,15.7
2017-08-12T04:55:35.581Z,15.65
2017-08-12T04:56:03.830Z,15.6
2017-08-12T04:56:31.926Z,15.63
2017-08-12T04:57:00.086Z,15.62
2017-08-12T04:57:28.218Z,15.58
2017-08-12T04:57:56.371Z,15.6
2017-08-12T04:58:24.366Z,15.62
2017-08-12T04:58:52.544Z,15.63
2017-08-12T04:59:20.626Z,15.67
2017-08-12T04:59:48.710Z,15.52
2017-08-12T05:00:16.809Z,15.65
2017-08-12T05:00:45.046Z,15.7
2017-08-12T05:01:13.072Z,15.68
2017-08-12T05:01:41.141Z,15.68
2017-08-12T05:02:09.215Z,15.62
2017-08-12T05:02:37.323Z,15.68
2017-08-12T05:03:05.376Z,15.65
2017-08-12T05:03:33.450Z,15.67
2017-08-12T05:04:01.654Z,15.63
2017-08-12T05:04:29.875Z,15.65
2017-08-12T05:04:58.061Z,15.63
2017-08-12T05:05:26.212Z,15.67
2017-08-12T05:05:54.467Z,15.65
2017-08-12T05:06:22.687Z,15.56
2017-08-12T05:06:50.774Z,15.67
2017-08-12T05:07:18.881Z,15.6
2017-08-12T05:07:46.938Z,15.59
2017-08-12T05:08:14.950Z,15.59
2017-08-12T05:08:43.037Z,15.62
2017-08-12T05:09:11.128Z,15.65
2017-08-12T05:09:39.218Z,15.63
2017-08-12T05:10:07.380Z,15.62
2017-08-12T05:10:35.590Z,15.62
2017-08-12T05:11:03.618Z,15.62
2017-08-12T05:11:31.540Z,15.65
2017-08-12T05:11:59.729Z,15.65
2017-08-12T05:12:27.769Z,15.58
2017-08-12T05:12:55.953Z,15.6
2017-08-12T05:13:24.050Z,15.62
2017-08-12T05:13:52.194Z,15.68
2017-08-12T05:14:20.390Z,15.6
2017-08-12T05:14:48.557Z,15.58
2017-08-12T05:15:16.743Z,15.58
2017-08-12T05:15:44.867Z,15.58
2017-08-12T05:16:12.974Z,15.65
2017-08-12T05:16:41.088Z,15.58
2017-08-12T05:17:09.284Z,15.6
2017-08-12T05:17:37.517Z,15.62
2017-08-12T05:18:05.539Z,15.65
2017-08-12T05:18:33.700Z,15.63
2017-08-12T05:19:01.702Z,15.63
2017-08-12T05:19:29.782Z,15.67
2017-08-12T05:19:57.698Z,15.63
2017-08-12T05:20:25.788Z,15.6
2017-08-12T05:20:54.024Z,15.68
2017-08-12T05:21:22.141Z,15.63
2017-08-12T05:21:50.174Z,15.68
2017-08-12T05:22:18.258Z,15.71
2017-08-12T05:22:46.466Z,15.7
2017-08-12T05:23:14.549Z,15.74
2017-08-12T05:23:42.615Z,15.7
2017-08-12T05:24:10.834Z,15.73
2017-08-12T05:24:38.859Z,15.63
2017-08-12T05:25:07.052Z,15.75
2017-08-12T05:25:35.152Z,15.59
2017-08-12T05:26:03.357Z,15.62
2017-08-12T05:26:31.343Z,15.68
2017-08-12T05:26:59.559Z,15.73
2017-08-12T05:27:27.733Z,15.63
2017-08-12T05:27:55.769Z,15.6
2017-08-12T05:28:23.792Z,15.58
2017-08-12T05:28:51.898Z,15.67
2017-08-12T05:29:19.948Z,15.68
2017-08-12T05:29:48.147Z,15.65
2017-08-12T05:30:16.259Z,15.63
2017-08-12T05:30:44.440Z,15.62
2017-08-12T05:31:12.647Z,15.67
2017-08-12T05:31:40.858Z,15.59
2017-08-12T05:32:08.953Z,15.67
2017-08-12T05:32:37.108Z,15.62
2017-08-12T05:33:05.136Z,15.68
2017-08-12T05:33:33.183Z,15.63
2017-08-12T05:34:01.404Z,15.71
2017-08-12T05:34:29.482Z,15.71
2017-08-12T05:34:57.685Z,15.67
2017-08-12T05:35:25.847Z,15.59
2017-08-12T05:35:53.911Z,15.63
2017-08-12T05:36:22.108Z,15.62
2017-08-12T05:36:50.267Z,15.63
2017-08-12T05:37:18.385Z,15.67
2017-08-12T05:37:46.457Z,15.63
2017-08-12T05:38:14.611Z,15.65
2017-08-12T05:38:42.774Z,15.63
2017-08-12T05:39:10.998Z,15.63
2017-08-12T05:39:39.099Z,15.6
2017-08-12T05:40:07.273Z,15.63
2017-08-12T05:40:35.391Z,15.65
2017-08-12T05:41:03.600Z,15.63
2017-08-12T05:41:31.809Z,15.49
2017-08-12T05:41:59.997Z,15.56
2017-08-12T05:42:28.070Z,15.56
2017-08-12T05:42:56.152Z,15.56
2017-08-12T05:43:24.337Z,15.52
2017-08-12T05:43:52.533Z,15.63
2017-08-12T05:44:20.525Z,15.53
2017-08-12T05:44:48.591Z,15.49
2017-08-12T05:45:16.704Z,15.52
2017-08-12T05:45:44.836Z,15.45
2017-08-12T05:46:13.067Z,15.38
2017-08-12T05:46:41.143Z,15.52
2017-08-12T05:47:09.255Z,15.4
2017-08-12T05:47:37.378Z,15.35
2017-08-12T05:48:05.469Z,15.35
2017-08-12T05:48:33.664Z,15.37
2017-08-12T05:49:01.864Z,15.4
2017-08-12T05:49:29.921Z,15.38
2017-08-12T05:49:58.125Z,15.41
2017-08-12T05:50:26.228Z,15.4
2017-08-12T05:50:54.379Z,15.37
2017-08-12T05:51:22.642Z,15.45
2017-08-12T05:51:50.598Z,15.52
2017-08-12T05:52:18.748Z,15.49
2017-08-12T05:52:46.968Z,15.38
2017-08-12T05:53:14.887Z,15.47
2017-08-12T05:53:42.977Z,15.52
2017-08-12T05:54:11.066Z,15.49
2017-08-12T05:54:39.262Z,15.53
2017-08-12T05:55:07.424Z,15.51
2017-08-12T05:55:35.421Z,15.52
2017-08-12T05:56:03.639Z,15.52
2017-08-12T05:56:31.879Z,15.45
2017-08-12T05:57:00.059Z,15.51
2017-08-12T05:57:28.140Z,15.45
2017-08-12T05:57:56.225Z,15.49
2017-08-12T05:58:24.217Z,15.49
2017-08-12T05:58:52.311Z,15.44
2017-08-12T05:59:20.372Z,15.58
2017-08-12T05:59:48.454Z,15.53
2017-08-12T06:00:16.465Z,15.51
2017-08-12T06:00:44.656Z,15.49
2017-08-12T06:01:12.791Z,15.53
2017-08-12T06:01:40.880Z,15.53
2017-08-12T06:02:08.879Z,15.6
2017-08-12T06:02:36.882Z,15.55
2017-08-12T06:03:04.992Z,15.63
2017-08-12T06:03:33.209Z,15.59
2017-08-12T06:04:01.423Z,15.55